Time;durP1;ratioP1;P1;durP2;ratioP2;P2;SDS_P1;SDS_P2;PMS_P1;PMS_P2;Temp;Humidity;BMP_temperature;BMP_pressure;BME280_temperature;BME280_humidity;BME280_pressure;Samples;Min_cycle;Max_cycle;Signal;HPM_P1;HPM_P2
2022/04/27 00:02:23;;;;;;;5.53;4.83;;;;;;;5.56;100.00;96535.19;5073802;27;105565;-65
2022/04/27 00:04:51;;;;;;;4.53;4.20;;;;;;;5.53;100.00;96530.38;5091695;27;103121;-65
2022/04/27 00:07:18;;;;;;;4.73;4.23;;;;;;;5.48;100.00;96530.22;5073651;27;101864;-65
2022/04/27 00:09:45;;;;;;;5.00;4.60;;;;;;;5.46;100.00;96531.44;5073644;27;105271;-65
2022/04/27 00:12:15;;;;;;;4.40;4.00;;;;;;;5.47;100.00;96528.59;5072905;27;105819;-65
2022/04/27 00:14:42;;;;;;;4.60;4.27;;;;;;;5.53;100.00;96532.19;5092278;27;101740;-65
2022/04/27 00:17:10;;;;;;;4.67;4.27;;;;;;;5.63;100.00;96535.16;5095125;27;102728;-65
2022/04/27 00:19:38;;;;;;;5.57;4.97;;;;;;;5.54;100.00;96520.63;5072733;27;102071;-65
2022/04/27 00:22:06;;;;;;;4.93;4.10;;;;;;;5.78;100.00;96522.44;5073511;27;105620;-65
2022/04/27 00:24:33;;;;;;;4.57;4.17;;;;;;;5.77;100.00;96521.63;5072913;27;106034;-65
2022/04/27 00:27:00;;;;;;;5.20;4.70;;;;;;;5.87;100.00;96526.44;5073421;27;102195;-65
2022/04/27 00:29:29;;;;;;;5.10;4.57;;;;;;;5.95;100.00;96526.16;5073142;27;105060;-65
2022/04/27 00:31:57;;;;;;;4.97;4.03;;;;;;;5.90;100.00;96528.66;5072661;27;105695;-65
2022/04/27 00:34:25;;;;;;;4.20;3.90;;;;;;;5.84;100.00;96529.53;5073422;27;101822;-65
2022/04/27 00:36:53;;;;;;;4.90;4.50;;;;;;;5.85;100.00;96533.78;5073290;27;105410;-65
2022/04/27 00:39:20;;;;;;;4.93;4.50;;;;;;;5.88;100.00;96531.50;5075933;27;105678;-65
2022/04/27 00:42:00;;;;;;;4.70;4.30;;;;;;;5.82;100.00;96532.38;5073076;27;105412;-65
2022/04/27 00:44:27;;;;;;;5.13;4.70;;;;;;;5.87;100.00;96529.06;5072465;27;105557;-65
2022/04/27 00:46:57;;;;;;;4.37;4.03;;;;;;;5.90;100.00;96526.81;5072421;27;102001;-65
2022/04/27 00:49:25;;;;;;;4.80;4.50;;;;;;;5.95;100.00;96523.53;5072710;27;103942;-65
2022/04/27 00:51:53;;;;;;;5.03;4.60;;;;;;;5.98;100.00;96531.00;5090966;27;103680;-65
2022/04/27 00:54:22;;;;;;;4.47;4.07;;;;;;;5.96;100.00;96530.41;5072174;27;102197;-65
2022/04/27 00:56:51;;;;;;;4.50;4.10;;;;;;;6.04;100.00;96527.47;5091587;27;102886;-65
2022/04/27 00:59:19;;;;;;;5.10;4.70;;;;;;;6.06;100.00;96528.09;5072333;27;105504;-65
2022/04/27 01:01:47;;;;;;;5.30;4.90;;;;;;;6.05;100.00;96529.13;5076365;27;101942;-65
2022/04/27 01:04:16;;;;;;;5.37;4.87;;;;;;;6.04;100.00;96530.13;5072272;27;105738;-65
2022/04/27 01:06:44;;;;;;;4.90;4.50;;;;;;;6.04;100.00;96533.59;5072815;27;101897;-65
2022/04/27 01:09:13;;;;;;;4.37;4.07;;;;;;;6.02;100.00;96526.91;5072743;27;105117;-65
2022/04/27 01:11:42;;;;;;;5.30;4.80;;;;;;;5.99;100.00;96535.25;5072130;27;105853;-65
2022/04/27 01:14:10;;;;;;;5.23;4.73;;;;;;;5.94;100.00;96535.91;5072854;27;102137;-65
2022/04/27 01:16:38;;;;;;;4.80;4.50;;;;;;;5.97;100.00;96539.94;5072827;27;104143;-65
2022/04/27 01:19:05;;;;;;;4.93;4.53;;;;;;;5.84;100.00;96532.16;5089970;27;103197;-65
2022/04/27 01:21:35;;;;;;;4.73;4.27;;;;;;;5.88;100.00;96533.31;5072421;27;101930;-65
2022/04/27 01:24:06;;;;;;;4.70;4.30;;;;;;;5.83;100.00;96536.63;5075464;27;105789;-65
2022/04/27 01:26:34;;;;;;;4.53;4.13;;;;;;;5.76;100.00;96540.31;5072873;27;102004;-65
2022/04/27 01:29:02;;;;;;;5.13;4.60;;;;;;;5.76;100.00;96535.03;5072333;27;105489;-65
2022/04/27 01:31:31;;;;;;;5.47;5.07;;;;;;;5.74;100.00;96537.88;5071889;27;105574;-65
2022/04/27 01:33:59;;;;;;;5.40;5.00;;;;;;;5.71;100.00;96542.78;5072698;27;101994;-65
2022/04/27 01:36:28;;;;;;;5.60;5.10;;;;;;;5.69;100.00;96542.22;5072421;27;105368;-65
2022/04/27 01:38:56;;;;;;;4.80;4.40;;;;;;;5.59;100.00;96545.34;5090099;27;102861;-65
2022/04/27 01:41:24;;;;;;;4.90;4.40;;;;;;;5.55;100.00;96538.06;5072355;27;102197;-65
2022/04/27 01:43:51;;;;;;;5.37;4.87;;;;;;;5.51;100.00;96542.16;5072442;27;105722;-65
2022/04/27 01:46:19;;;;;;;4.73;4.43;;;;;;;5.36;100.00;96539.03;5075199;27;102067;-65
2022/04/27 01:48:47;;;;;;;4.40;4.10;;;;;;;5.30;100.00;96545.16;5072149;27;105379;-65
2022/04/27 01:51:14;;;;;;;4.93;4.40;;;;;;;5.28;100.00;96547.19;5071425;27;105529;-65
2022/04/27 01:56:29;;;;;;;4.60;4.20;;;;;;;5.10;100.00;96544.47;5072268;27;105357;-65
2022/04/27 01:58:57;;;;;;;5.07;4.67;;;;;;;5.17;100.00;96553.94;5071529;27;105706;-65
2022/04/27 02:01:26;;;;;;;4.73;4.33;;;;;;;5.02;100.00;96544.72;5072161;27;101903;-65
2022/04/27 02:03:58;;;;;;;4.93;4.40;;;;;;;4.94;100.00;96555.50;5072096;27;105802;-65
2022/04/27 02:06:26;;;;;;;5.10;4.70;;;;;;;5.08;100.00;96552.56;5077260;27;104368;-65
2022/04/27 02:08:54;;;;;;;5.03;4.63;;;;;;;5.06;100.00;96557.25;5075521;27;105526;-65
2022/04/27 02:11:28;;;;;;;5.00;4.60;;;;;;;4.88;100.00;96554.53;5075232;27;104514;-65
2022/04/27 02:14:04;;;;;;;5.50;5.00;;;;;;;4.91;100.00;96561.22;5075666;27;101825;-65
2022/04/27 02:16:33;;;;;;;4.77;4.37;;;;;;;4.86;100.00;96566.31;5075474;27;105243;-65
2022/04/27 02:19:03;;;;;;;5.30;4.90;;;;;;;4.93;100.00;96564.44;5074362;27;105497;-65
2022/04/27 02:21:31;;;;;;;5.23;4.83;;;;;;;4.96;100.00;96561.38;5075428;27;101970;-65
2022/04/27 02:24:00;;;;;;;5.70;4.83;;;;;;;4.98;100.00;96557.53;5075598;27;105694;-65
2022/04/27 02:26:29;;;;;;;5.77;5.20;;;;;;;4.97;100.00;96560.38;5093609;27;103151;-65
2022/04/27 02:28:58;;;;;;;5.87;5.37;;;;;;;5.00;100.00;96565.19;5078878;27;102030;-65
2022/04/27 02:31:27;;;;;;;5.80;5.30;;;;;;;5.03;100.00;96570.06;5074251;27;105470;-65
2022/04/27 02:33:55;;;;;;;5.50;5.10;;;;;;;5.06;100.00;96561.72;5075088;27;101804;-65
2022/04/27 02:36:23;;;;;;;6.30;5.80;;;;;;;5.12;100.00;96558.25;5075227;27;105400;-65
2022/04/27 02:38:52;;;;;;;5.97;5.47;;;;;;;5.20;100.00;96563.25;5074463;27;105449;-65
2022/04/27 02:41:20;;;;;;;6.50;5.90;;;;;;;5.26;100.00;96570.31;5074908;27;102297;-65
2022/04/27 02:43:50;;;;;;;5.70;5.23;;;;;;;5.26;100.00;96570.31;5075323;27;104622;-65
2022/04/27 02:46:20;;;;;;;6.03;5.53;;;;;;;5.33;100.00;96573.72;5074320;27;105416;-65
2022/04/27 02:51:51;;;;;;;6.03;5.53;;;;;;;5.43;100.00;96571.41;5077368;27;105077;-65
2022/04/27 02:54:37;;;;;;;6.90;6.20;;;;;;;5.49;100.00;96575.84;5074747;27;101993;-65
2022/04/27 02:57:06;;;;;;;7.30;6.70;;;;;;;5.56;100.00;96573.97;5074878;27;104688;-65
2022/04/27 02:59:36;;;;;;;7.10;6.50;;;;;;;5.49;100.00;96578.47;5074090;27;105499;-65
2022/04/27 03:02:03;;;;;;;6.80;6.20;;;;;;;5.50;100.00;96588.00;5074644;27;101945;-65
2022/04/27 03:04:31;;;;;;;7.07;6.37;;;;;;;5.61;100.00;96582.03;5074828;27;105058;-65
2022/04/27 03:07:00;;;;;;;7.23;6.63;;;;;;;5.56;100.00;96587.16;5073858;27;105216;-65
2022/04/27 03:09:29;;;;;;;6.90;6.30;;;;;;;5.59;100.00;96587.53;5074079;27;102136;-65
2022/04/27 03:11:58;;;;;;;6.93;6.33;;;;;;;5.72;100.00;96581.38;5073761;27;105578;-65
2022/04/27 03:14:35;;;;;;;6.90;6.30;;;;;;;5.68;100.00;96590.72;5061947;27;105273;-65
2022/04/27 03:17:03;;;;;;;7.00;6.40;;;;;;;5.73;100.00;96593.53;5091863;27;102791;-65
2022/04/27 03:19:31;;;;;;;7.27;6.57;;;;;;;5.76;100.00;96596.53;5069625;27;105499;-65
2022/04/27 03:21:59;;;;;;;7.03;6.43;;;;;;;5.75;100.00;96596.75;5071072;27;102317;-65
2022/04/27 03:24:27;;;;;;;8.03;7.33;;;;;;;5.65;100.00;96596.41;5070864;27;105369;-65
2022/04/27 03:27:05;;;;;;;7.20;6.60;;;;;;;5.63;100.00;96595.84;5070409;27;105340;-65
2022/04/27 03:29:33;;;;;;;6.80;6.20;;;;;;;5.66;100.00;96595.38;5070847;27;101966;-65
2022/04/27 03:32:05;;;;;;;6.90;6.20;;;;;;;5.71;100.00;96596.38;5070828;27;106059;-65
2022/04/27 03:34:33;;;;;;;6.83;6.23;;;;;;;5.74;100.00;96595.94;5070377;27;105586;-65
2022/04/27 03:37:00;;;;;;;7.60;6.90;;;;;;;5.72;100.00;96607.75;5074521;27;101927;-65
2022/04/27 03:39:29;;;;;;;7.23;6.53;;;;;;;5.81;100.00;96607.28;5070149;27;105624;-65
2022/04/27 03:41:57;;;;;;;8.40;7.63;;;;;;;5.92;100.00;96613.69;5070812;27;101963;-65
2022/04/27 03:44:25;;;;;;;7.90;7.17;;;;;;;5.89;100.00;96614.94;5070856;27;105578;-65
2022/04/27 03:46:53;;;;;;;7.77;7.07;;;;;;;5.92;100.00;96611.88;5070078;27;105288;-65
2022/04/27 03:49:22;;;;;;;8.17;7.47;;;;;;;5.94;100.00;96611.66;5070485;27;101906;-65
2022/04/27 03:51:50;;;;;;;7.50;6.80;;;;;;;5.95;100.00;96618.53;5070695;27;105575;-65
2022/04/27 03:54:19;;;;;;;7.70;7.00;;;;;;;5.97;100.00;96617.31;5070068;27;105856;-65
2022/04/27 03:56:47;;;;;;;7.17;6.57;;;;;;;6.06;100.00;96620.47;5074138;27;101869;-65
2022/04/27 03:59:18;;;;;;;7.37;6.67;;;;;;;6.07;100.00;96627.38;5053253;27;105824;-65
2022/04/27 04:01:46;;;;;;;7.63;6.87;;;;;;;6.03;100.00;96624.38;5070215;27;102017;-65
2022/04/27 04:04:14;;;;;;;8.30;7.50;;;;;;;6.17;100.00;96631.13;5068957;27;104952;-65
2022/04/27 04:06:42;;;;;;;8.13;7.33;;;;;;;6.12;100.00;96640.72;5069949;27;106018;-65
2022/04/27 04:09:10;;;;;;;8.37;7.67;;;;;;;6.15;100.00;96635.00;5070447;27;102463;-65
2022/04/27 04:11:40;;;;;;;7.37;6.77;;;;;;;6.24;100.00;96639.81;5070173;27;105358;-65
2022/04/27 04:14:30;;;;;;;8.07;7.37;;;;;;;6.24;100.00;96644.28;5050050;27;102992;-65
2022/04/27 04:17:04;;;;;;;8.27;7.47;;;;;;;6.30;100.00;96643.41;5070110;27;101841;-65
2022/04/27 04:19:35;;;;;;;8.07;7.33;;;;;;;6.33;100.00;96645.63;5072448;27;105346;-65
2022/04/27 04:22:21;;;;;;;8.30;7.50;;;;;;;6.35;100.00;96640.91;5070161;27;102356;-65
2022/04/27 04:30:31;;;;;;;7.77;7.07;;;;;;;6.47;100.00;96661.13;5070102;27;102062;-65
2022/04/27 04:33:19;;;;;;;7.70;7.00;;;;;;;6.52;100.00;96669.22;5070665;27;103707;-65
2022/04/27 04:35:52;;;;;;;7.37;6.67;;;;;;;6.57;100.00;96665.91;5069739;27;105348;-65
2022/04/27 04:38:22;;;;;;;7.73;6.90;;;;;;;6.58;100.00;96670.16;5069842;27;101908;-65
2022/04/27 04:40:52;;;;;;;7.73;6.97;;;;;;;6.62;100.00;96676.63;5069909;27;104688;-65
2022/04/27 04:43:21;;;;;;;7.67;6.97;;;;;;;6.62;100.00;96679.28;5072503;27;104825;-65
2022/04/27 04:45:49;;;;;;;7.93;7.10;;;;;;;6.56;100.00;96680.97;5069794;27;105401;-65
2022/04/27 04:48:37;;;;;;;7.77;6.43;;;;;;;6.57;100.00;96676.47;5069908;27;104156;-65
2022/04/27 04:51:15;;;;;;;7.23;6.63;;;;;;;6.59;100.00;96684.97;5069634;27;101860;-65
2022/04/27 04:53:53;;;;;;;7.83;7.13;;;;;;;6.57;100.00;96689.69;5069813;27;105602;-65
2022/04/27 04:56:26;;;;;;;7.17;6.57;;;;;;;6.61;100.00;96690.88;5067364;27;102446;-65
2022/04/27 04:59:16;;;;;;;6.50;5.90;;;;;;;6.63;100.00;96691.44;5069465;27;102119;-65
2022/04/27 05:01:59;;;;;;;7.40;6.70;;;;;;;6.69;100.00;96693.22;5069478;27;105533;-65
2022/04/27 05:04:56;;;;;;;8.60;7.40;;;;;;;6.76;100.00;96696.63;5058832;27;103077;-65
2022/04/27 05:07:42;;;;;;;7.90;7.10;;;;;;;6.74;100.00;96698.66;5071218;27;101736;-65
2022/04/27 05:10:29;;;;;;;8.77;7.93;;;;;;;6.66;100.00;96706.88;5068928;27;105613;-65
2022/04/27 05:13:08;;;;;;;7.90;7.13;;;;;;;6.73;100.00;96707.63;5069257;27;101805;-65
2022/04/27 05:15:39;;;;;;;8.73;7.90;;;;;;;6.77;100.00;96708.81;5070636;27;102099;-65
2022/04/27 05:18:25;;;;;;;9.47;8.47;;;;;;;6.74;100.00;96710.06;5067232;27;102254;-65
2022/04/27 05:21:21;;;;;;;8.50;7.70;;;;;;;6.86;100.00;96707.47;5048762;27;102407;-66
2022/04/27 05:24:14;;;;;;;9.10;8.20;;;;;;;6.70;100.00;96710.72;5057092;27;102771;-65
2022/04/27 05:27:11;;;;;;;8.60;7.40;;;;;;;6.81;100.00;96716.06;5068341;27;105539;-66
2022/04/27 05:32:46;;;;;;;9.10;8.23;;;;;;;6.96;100.00;96721.81;5070557;27;101749;-65
2022/04/27 05:35:40;;;;;;;9.30;8.40;;;;;;;7.06;100.00;96723.94;5070501;27;101923;-65
2022/04/27 05:38:17;;;;;;;10.60;9.60;;;;;;;7.05;100.00;96728.44;5069121;27;103680;-65
2022/04/27 05:41:03;;;;;;;8.77;7.87;;;;;;;7.05;100.00;96733.72;5068498;27;102361;-65
2022/04/27 05:43:55;;;;;;;8.53;7.73;;;;;;;7.19;100.00;96742.34;5072943;27;101846;-65
2022/04/27 05:46:36;;;;;;;8.80;7.90;;;;;;;7.01;100.00;96743.13;5072968;27;105353;-65
2022/04/27 05:49:21;;;;;;;9.53;7.77;;;;;;;6.99;100.00;96750.44;5073521;27;102405;-65
2022/04/27 05:52:08;;;;;;;9.30;8.50;;;;;;;6.93;100.00;96753.19;5071361;27;101707;-65
2022/04/27 05:54:53;;;;;;;9.37;8.47;;;;;;;7.04;100.00;96753.25;5071192;27;102042;-65
2022/04/27 05:57:34;;;;;;;8.97;8.07;;;;;;;7.05;100.00;96759.34;5075088;27;105319;-65
2022/04/27 06:00:26;;;;;;;8.93;8.03;;;;;;;7.10;100.00;96756.88;5074439;27;102144;-65
2022/04/27 06:03:12;;;;;;;11.03;8.90;;;;;;;7.13;100.00;96757.22;5072088;27;105060;-65
2022/04/27 06:05:39;;;;;;;9.17;8.27;;;;;;;7.14;100.00;96761.47;5072470;27;101856;-65
2022/04/27 06:08:07;;;;;;;8.93;8.00;;;;;;;7.20;100.00;96760.59;5072718;27;103573;-65
2022/04/27 06:10:34;;;;;;;8.60;7.80;;;;;;;7.24;100.00;96763.63;5071768;27;105253;-65
2022/04/27 06:13:02;;;;;;;9.07;8.23;;;;;;;7.22;100.00;96766.50;5072079;27;101862;-65
2022/04/27 06:16:07;;;;;;;9.07;8.17;;;;;;;7.30;100.00;96768.06;5030138;28;102311;-65
2022/04/27 06:18:51;;;;;;;9.10;8.30;;;;;;;7.10;100.00;96773.53;5071396;27;104990;-65
2022/04/27 06:21:19;;;;;;;10.57;9.53;;;;;;;7.14;100.00;96776.56;5072052;27;104891;-65
2022/04/27 06:23:47;;;;;;;11.30;10.17;;;;;;;7.27;100.00;96781.69;5055087;27;104343;-65
2022/04/27 06:26:15;;;;;;;10.97;9.93;;;;;;;7.29;100.00;96783.09;5071021;27;102016;-65
2022/04/27 06:28:44;;;;;;;12.10;10.90;;;;;;;7.17;100.00;96784.03;5072117;27;104796;-65
2022/04/27 06:31:14;;;;;;;11.37;10.13;;;;;;;7.13;100.00;96788.13;5070356;27;104206;-65
2022/04/27 06:33:42;;;;;;;10.97;9.83;;;;;;;7.23;100.00;96778.69;5071243;27;101907;-65
2022/04/27 06:36:09;;;;;;;10.67;9.60;;;;;;;7.30;100.00;96783.91;5071668;27;104981;-65
2022/04/27 06:38:35;;;;;;;11.07;9.93;;;;;;;7.38;100.00;96781.78;5071137;27;105060;-65
2022/04/27 06:41:10;;;;;;;11.40;10.30;;;;;;;7.50;100.00;96781.84;5075366;27;101854;-65
2022/04/27 06:44:16;;;;;;;11.37;10.20;;;;;;;7.53;100.00;96789.34;5048896;27;102486;-65
2022/04/27 06:47:03;;;;;;;11.00;9.87;;;;;;;7.55;100.00;96789.94;5046566;27;101836;-65
2022/04/27 06:49:49;;;;;;;10.77;9.50;;;;;;;7.56;100.00;96788.88;5067193;27;102120;-65
2022/04/27 06:52:40;;;;;;;9.70;8.80;;;;;;;7.66;100.00;96792.66;5068592;27;102211;-65
2022/04/27 06:55:39;;;;;;;9.17;8.27;;;;;;;7.64;100.00;96799.19;5037492;27;101872;-65
2022/04/27 06:58:45;;;;;;;9.67;8.67;;;;;;;7.81;100.00;96803.63;5009395;28;102249;-65
2022/04/27 07:01:26;;;;;;;10.07;9.17;;;;;;;7.94;100.00;96808.78;4992333;28;105520;-65
2022/04/27 07:03:56;;;;;;;11.27;10.17;;;;;;;8.19;100.00;96809.44;5044391;27;101864;-65
2022/04/27 07:06:24;;;;;;;10.17;9.17;;;;;;;8.28;100.00;96802.06;5073600;27;104761;-65
2022/04/27 07:08:51;;;;;;;9.80;8.90;;;;;;;8.44;100.00;96806.69;5071561;27;101843;-65
2022/04/27 07:11:18;;;;;;;9.60;8.70;;;;;;;8.50;100.00;96813.75;5054178;27;106338;-65
2022/04/27 07:13:45;;;;;;;9.23;8.33;;;;;;;8.56;100.00;96808.34;5070793;27;105527;-65
2022/04/27 07:16:14;;;;;;;9.10;8.30;;;;;;;8.62;100.00;96814.56;5071511;27;101911;-65
2022/04/27 07:18:41;;;;;;;9.90;8.93;;;;;;;8.75;100.00;96812.53;5070923;27;105699;-65
2022/04/27 07:21:10;;;;;;;8.53;7.73;;;;;;;8.63;100.00;96813.53;5070332;27;105244;-65
2022/04/27 07:23:37;;;;;;;8.30;7.60;;;;;;;8.54;100.00;96817.53;5071279;27;101901;-65
2022/04/27 07:26:06;;;;;;;8.13;7.43;;;;;;;8.58;100.00;96810.75;5071077;27;104781;-65
2022/04/27 07:28:34;;;;;;;7.37;6.77;;;;;;;8.53;100.00;96821.22;5074279;27;104215;-65
2022/04/27 07:31:03;;;;;;;7.43;6.73;;;;;;;8.75;100.00;96814.38;5070905;27;105576;-69
2022/04/27 07:33:31;;;;;;;7.17;6.57;;;;;;;8.90;100.00;96814.75;5070462;27;105844;-65
2022/04/27 07:35:58;;;;;;;6.70;6.10;;;;;;;8.71;100.00;96821.97;5070867;27;101865;-65
2022/04/27 07:38:28;;;;;;;6.80;6.20;;;;;;;8.94;100.00;96818.56;5070977;27;105003;-65
2022/04/27 07:40:54;;;;;;;6.83;6.13;;;;;;;9.14;100.00;96826.97;5070425;27;105657;-65
2022/04/27 07:43:22;;;;;;;7.67;6.47;;;;;;;9.01;100.00;96820.06;5070776;27;101761;-65
2022/04/27 07:45:48;;;;;;;6.53;6.03;;;;;;;8.99;100.00;96822.13;5070420;27;103640;-65
2022/04/27 07:48:15;;;;;;;6.53;5.93;;;;;;;9.46;100.00;96820.25;5069835;27;103982;-65
2022/04/27 07:50:44;;;;;;;7.30;6.60;;;;;;;9.55;100.00;96816.22;5074422;27;101880;-65
2022/04/27 07:53:11;;;;;;;5.60;5.10;;;;;;;9.81;100.00;96818.38;5069670;27;104503;-65
2022/04/27 07:55:39;;;;;;;4.57;4.17;;;;;;;9.70;100.00;96811.25;5070608;27;102042;-65
2022/04/27 07:58:06;;;;;;;4.60;4.20;;;;;;;9.72;100.00;96819.78;5070775;27;105215;-65
2022/04/27 08:00:33;;;;;;;4.60;4.20;;;;;;;9.46;100.00;96822.91;5069668;27;105578;-65
2022/04/27 08:03:00;;;;;;;5.60;5.13;;;;;;;9.52;100.00;96819.31;5069936;27;101862;-65
2022/04/27 08:05:27;;;;;;;5.83;5.33;;;;;;;9.84;100.00;96817.88;5070639;27;103677;-65
2022/04/27 08:07:54;;;;;;;6.60;5.90;;;;;;;10.03;100.00;96822.00;5069889;27;105489;-65
2022/04/27 08:10:22;;;;;;;7.30;6.60;;;;;;;10.51;100.00;96825.03;5070162;27;101938;-65
2022/04/27 08:12:51;;;;;;;7.63;6.87;;;;;;;10.88;100.00;96820.91;5073287;27;105665;-65
2022/04/27 08:15:20;;;;;;;7.00;6.30;;;;;;;11.27;100.00;96818.06;5070204;27;102050;-65
2022/04/27 08:17:52;;;;;;;6.87;6.20;;;;;;;11.22;100.00;96822.50;5070419;27;103500;-65
2022/04/27 08:23:07;;;;;;;6.10;5.50;;;;;;;10.72;100.00;96824.34;5070055;27;101895;-65
2022/04/27 08:25:34;;;;;;;6.40;5.80;;;;;;;10.40;100.00;96834.72;5070331;27;106466;-65
2022/04/27 08:28:06;;;;;;;7.23;6.30;;;;;;;10.09;100.00;96837.03;5069949;27;105432;-65
2022/04/27 08:30:35;;;;;;;6.53;5.93;;;;;;;10.28;100.00;96825.16;5070172;27;102286;-65
2022/04/27 08:33:02;;;;;;;7.23;6.60;;;;;;;10.19;100.00;96830.03;5073036;27;105670;-65
2022/04/27 08:35:29;;;;;;;7.30;6.60;;;;;;;10.30;100.00;96831.06;5069891;27;101914;-65
2022/04/27 08:37:56;;;;;;;7.30;6.60;;;;;;;10.12;100.00;96828.56;5071422;27;102908;-65
2022/04/27 08:40:24;;;;;;;7.10;6.40;;;;;;;10.43;100.00;96828.09;5069389;27;102804;-65
2022/04/27 08:42:52;;;;;;;7.37;6.20;;;;;;;10.31;100.00;96830.81;5071252;27;102122;-65
2022/04/27 08:45:21;;;;;;;7.53;6.83;;;;;;;10.35;100.00;96833.81;5070108;27;103965;-65
2022/04/27 08:47:50;;;;;;;8.23;7.53;;;;;;;10.42;100.00;96834.47;5069276;27;103775;-65
2022/04/27 08:50:20;;;;;;;8.73;7.83;;;;;;;10.48;100.00;96836.19;5070196;27;101959;-65
2022/04/27 08:52:47;;;;;;;7.80;7.00;;;;;;;10.39;100.00;96837.59;5069739;27;104894;-65
2022/04/27 08:55:15;;;;;;;10.90;9.83;;;;;;;10.41;100.00;96840.84;5072776;27;105642;-65
2022/04/27 08:57:43;;;;;;;8.30;7.50;;;;;;;10.62;100.00;96842.78;5069759;27;104754;-65
2022/04/27 09:00:12;;;;;;;7.97;7.17;;;;;;;10.68;100.00;96847.19;5070323;27;102958;-65
2022/04/27 09:02:41;;;;;;;7.73;7.00;;;;;;;10.38;100.00;96850.09;5071131;27;101982;-65
2022/04/27 09:05:12;;;;;;;7.63;6.93;;;;;;;10.60;100.00;96860.84;5070834;27;102377;-65
2022/04/27 09:07:40;;;;;;;7.60;6.90;;;;;;;10.60;100.00;96860.84;5070910;27;102891;-65
2022/04/27 09:10:10;;;;;;;7.50;6.70;;;;;;;10.44;100.00;96856.31;5070930;27;101731;-64
2022/04/27 09:12:44;;;;;;;7.13;6.47;;;;;;;10.71;100.00;96860.81;5071500;27;102983;-65
2022/04/27 09:15:12;;;;;;;7.87;6.83;;;;;;;10.90;100.00;96859.53;5069560;27;105491;-65
2022/04/27 09:23:22;;;;;;;7.10;6.40;;;;;;;11.14;100.00;96850.38;5058753;27;102228;-64
2022/04/27 09:25:50;;;;;;;6.97;6.27;;;;;;;10.83;100.00;96850.91;5073448;27;105055;-64
2022/04/27 09:28:17;;;;;;;10.10;6.83;;;;;;;11.05;100.00;96856.31;5072449;27;106614;-65
2022/04/27 09:30:48;;;;;;;7.20;6.50;;;;;;;11.05;100.00;96848.31;5072914;27;102140;-64
2022/04/27 09:33:30;;;;;;;6.70;6.00;;;;;;;11.27;100.00;96854.53;5072855;27;104156;-64
2022/04/27 09:35:57;;;;;;;6.77;6.10;;;;;;;11.44;100.00;96856.13;5072513;27;105545;-64
2022/04/27 09:38:24;;;;;;;7.13;6.43;;;;;;;11.50;100.00;96851.72;5072998;27;101894;-64
2022/04/27 09:40:54;;;;;;;6.97;6.27;;;;;;;11.31;100.00;96853.00;5075589;27;104977;-64
2022/04/27 09:43:42;;;;;;;6.67;6.07;;;;;;;11.90;100.00;96852.28;5074144;27;101841;-64
2022/04/27 09:46:17;;;;;;;6.57;5.93;;;;;;;12.28;100.00;96852.22;5074464;27;102375;-64
2022/04/27 09:48:47;;;;;;;6.60;5.87;;;;;;;12.12;100.00;96850.44;5072084;27;104027;-64
2022/04/27 09:51:15;;;;;;;6.23;5.60;;;;;;;11.95;100.00;96845.13;5072753;27;101978;-64
2022/04/27 09:53:43;;;;;;;5.70;5.20;;;;;;;12.24;100.00;96845.75;5072678;27;105129;-64
2022/04/27 09:56:13;;;;;;;5.67;5.17;;;;;;;11.91;100.00;96849.38;5071800;27;105562;-64
2022/04/27 09:58:47;;;;;;;6.00;5.40;;;;;;;12.20;100.00;96847.31;5072421;27;101983;-66
2022/04/27 10:01:17;;;;;;;5.67;5.17;;;;;;;12.81;100.00;96849.59;5072738;27;105507;-66
2022/04/27 10:03:49;;;;;;;5.33;4.63;;;;;;;12.68;100.00;96852.63;5075531;27;105424;-66
2022/04/27 10:06:17;;;;;;;5.17;4.77;;;;;;;13.03;100.00;96853.00;5072439;27;105885;-66
2022/04/27 10:08:46;;;;;;;5.20;4.73;;;;;;;13.61;100.00;96844.88;5071535;27;105023;-66
2022/04/27 10:11:14;;;;;;;4.70;4.30;;;;;;;14.14;100.00;96841.97;5072326;27;102023;-66
2022/04/27 10:13:43;;;;;;;4.83;4.43;;;;;;;14.65;100.00;96847.25;5072372;27;104745;-66
2022/04/27 10:16:10;;;;;;;5.03;4.43;;;;;;;14.84;100.00;96843.00;5071657;27;105622;-66
2022/04/27 10:18:38;;;;;;;5.23;4.73;;;;;;;14.28;100.00;96849.25;5072031;27;101864;-66
2022/04/27 10:21:07;;;;;;;5.83;5.33;;;;;;;14.46;100.00;96845.31;5071700;27;104072;-66
2022/04/27 10:23:44;;;;;;;4.70;4.30;;;;;;;14.91;100.00;96834.69;5073084;27;103079;-66
2022/04/27 10:26:13;;;;;;;5.30;4.90;;;;;;;13.78;100.00;96840.16;5075204;27;101821;-66
2022/04/27 10:28:44;;;;;;;5.23;4.73;;;;;;;13.50;100.00;96843.22;5071566;27;105043;-66
2022/04/27 10:31:12;;;;;;;5.10;4.60;;;;;;;13.37;100.00;96843.66;5071783;27;101866;-66
2022/04/27 10:33:44;;;;;;;4.47;4.07;;;;;;;13.79;100.00;96841.81;5073606;27;102638;-65
2022/04/27 10:36:38;;;;;;;4.67;4.27;;;;;;;13.88;100.00;96842.91;5071835;27;102224;-66
2022/04/27 10:39:27;;;;;;;5.17;4.77;;;;;;;13.82;100.00;96836.75;5072100;27;101833;-66
2022/04/27 10:42:34;;;;;;;5.10;4.43;;;;;;;13.82;100.00;96834.06;5073436;27;102669;-66
2022/04/27 10:45:06;;;;;;;4.97;4.57;;;;;;;13.78;100.00;96834.81;5071301;27;105199;-66
2022/04/27 10:47:38;;;;;;;5.17;4.67;;;;;;;13.73;100.00;96838.28;5074994;27;101824;-66
2022/04/27 10:50:23;;;;;;;4.80;4.30;;;;;;;13.71;100.00;96839.59;5072502;27;102650;-66
2022/04/27 10:52:55;;;;;;;5.20;4.80;;;;;;;13.75;100.00;96841.53;5072043;27;101880;-66
2022/04/27 10:55:45;;;;;;;4.83;4.43;;;;;;;13.85;100.00;96840.75;5073418;27;102454;-66
2022/04/27 10:58:18;;;;;;;5.90;4.47;;;;;;;13.84;100.00;96845.28;5072662;27;102628;-65
2022/04/27 11:01:24;;;;;;;4.97;4.53;;;;;;;13.58;100.00;96846.19;5072845;27;101819;-66
2022/04/27 11:04:07;;;;;;;5.53;4.33;;;;;;;13.80;100.00;96846.88;5073073;27;102836;-65
2022/04/27 11:07:02;;;;;;;4.67;4.27;;;;;;;13.58;100.00;96848.88;5070995;27;103813;-66
2022/04/27 11:09:45;;;;;;;5.30;4.90;;;;;;;13.33;100.00;96848.72;5071269;27;101901;-66
2022/04/27 11:12:14;;;;;;;5.60;5.00;;;;;;;13.16;100.00;96860.59;5074142;27;105340;-66
2022/04/27 11:14:42;;;;;;;5.70;5.20;;;;;;;12.67;100.00;96854.53;5072741;27;101839;-66
2022/04/27 11:17:10;;;;;;;6.00;5.50;;;;;;;12.02;100.00;96858.28;5071302;27;102454;-65
2022/04/27 11:19:38;;;;;;;6.30;5.70;;;;;;;12.18;100.00;96865.44;5069750;27;105650;-66
2022/04/27 11:22:12;;;;;;;5.70;5.20;;;;;;;11.73;100.00;96867.50;5071381;27;102052;-66
2022/04/27 11:24:42;;;;;;;5.50;5.00;;;;;;;12.05;100.00;96871.94;5071265;27;105327;-66
2022/04/27 11:27:10;;;;;;;5.77;5.27;;;;;;;12.38;100.00;96879.00;5070702;27;105850;-66
2022/04/27 11:29:38;;;;;;;5.67;5.17;;;;;;;12.67;100.00;96870.53;5070919;27;101935;-66
2022/04/27 11:32:07;;;;;;;5.80;5.30;;;;;;;12.93;100.00;96876.91;5071086;27;105653;-66
2022/04/27 11:34:34;;;;;;;5.77;4.40;;;;;;;13.34;100.00;96886.91;5075544;27;102787;-66
2022/04/27 11:37:15;;;;;;;4.40;3.50;;;;;;;13.62;100.00;96884.72;5071191;27;103808;-66
2022/04/27 11:39:45;;;;;;;4.43;4.03;;;;;;;13.74;100.00;96876.53;5069718;27;105940;-66
2022/04/27 11:42:12;;;;;;;4.10;3.80;;;;;;;13.93;100.00;96883.03;5072402;27;101859;-66
2022/04/27 11:44:40;;;;;;;4.03;3.73;;;;;;;14.12;100.00;96873.53;5070720;27;105243;-66
2022/04/27 11:47:25;;;;;;;4.00;3.60;;;;;;;14.32;100.00;96879.78;5070286;27;104058;-66
2022/04/27 11:49:57;;;;;;;3.30;3.03;;;;;;;14.52;100.00;96874.53;5071054;27;101835;-66
2022/04/27 11:52:24;;;;;;;3.83;3.53;;;;;;;14.67;100.00;96869.19;5070750;27;103777;-66
2022/04/27 11:54:53;;;;;;;3.80;3.50;;;;;;;14.76;100.00;96869.47;5070131;27;104188;-66
2022/04/27 11:57:22;;;;;;;3.23;3.03;;;;;;;14.77;100.00;96868.44;5074135;27;102037;-66
2022/04/27 11:59:51;;;;;;;3.57;3.27;;;;;;;14.94;100.00;96872.44;5069857;27;105327;-66
2022/04/27 12:02:23;;;;;;;2.90;2.70;;;;;;;14.86;100.00;96869.50;5070521;27;101860;-66
2022/04/27 12:04:50;;;;;;;2.97;2.77;;;;;;;14.73;100.00;96865.47;5071973;27;102346;-66
2022/04/27 12:07:19;;;;;;;3.67;3.37;;;;;;;14.33;100.00;96875.25;5071204;27;102781;-66
2022/04/27 12:10:02;;;;;;;4.77;4.30;;;;;;;14.61;100.00;96872.13;5071873;27;101918;-66